createdAt,value
2018-07-21T00:00:19.055Z,10.70
2018-07-21T00:02:47.216Z,10.37
2018-07-21T00:05:15.382Z,14.47
2018-07-21T00:07:43.569Z,12.27
2018-07-21T00:10:11.722Z,11.87
2018-07-21T00:12:39.888Z,10.70
2018-07-21T00:15:08.023Z,11.50
2018-07-21T00:17:36.174Z,12.40
2018-07-21T00:20:04.804Z,11.00
2018-07-21T00:22:32.981Z,11.00
2018-07-21T00:25:01.143Z,10.43
2018-07-21T00:27:29.283Z,9.63
2018-07-21T00:29:57.465Z,11.27
2018-07-21T00:32:25.643Z,9.10
2018-07-21T00:34:53.789Z,8.50
2018-07-21T00:37:21.969Z,10.87
2018-07-21T00:39:50.118Z,11.83
2018-07-21T00:42:18.273Z,11.57
2018-07-21T00:44:46.409Z,12.50
2018-07-21T00:47:14.569Z,10.03
2018-07-21T00:49:42.733Z,14.30
2018-07-21T00:52:10.885Z,9.07
2018-07-21T00:54:39.025Z,12.83
2018-07-21T00:57:06.953Z,10.97
2018-07-21T00:59:35.107Z,12.53
2018-07-21T01:02:03.255Z,15.73
2018-07-21T01:04:31.379Z,12.40
2018-07-21T01:06:59.517Z,15.83
2018-07-21T01:09:27.648Z,13.60
2018-07-21T01:11:55.787Z,14.07
2018-07-21T01:14:23.921Z,12.80
2018-07-21T01:16:52.077Z,15.53
2018-07-21T01:19:20.210Z,12.10
2018-07-21T01:21:48.346Z,12.60
2018-07-21T01:24:16.489Z,14.60
2018-07-21T01:26:44.633Z,11.93
2018-07-21T01:29:12.758Z,15.27
2018-07-21T01:31:40.875Z,13.63
2018-07-21T01:34:09.067Z,15.17
2018-07-21T01:36:37.185Z,13.60
2018-07-21T01:39:07.801Z,14.90
2018-07-21T01:41:35.921Z,15.17
2018-07-21T01:44:04.092Z,14.90
2018-07-21T01:46:32.218Z,18.27
2018-07-21T01:49:00.457Z,14.07
2018-07-21T01:51:28.664Z,16.50
2018-07-21T01:53:56.787Z,12.13
2018-07-21T01:56:24.910Z,11.73
2018-07-21T01:58:53.046Z,14.27
2018-07-21T02:01:21.619Z,13.90
2018-07-21T02:03:49.774Z,14.53
2018-07-21T02:06:18.101Z,11.90
2018-07-21T02:08:46.262Z,13.10
2018-07-21T02:11:14.418Z,15.80
2018-07-21T02:13:43.162Z,14.73
2018-07-21T02:16:11.346Z,15.57
2018-07-21T02:18:39.519Z,12.70
2018-07-21T02:21:07.673Z,18.20
2018-07-21T02:23:35.827Z,12.83
2018-07-21T02:26:03.994Z,11.93
2018-07-21T02:28:32.146Z,15.60
2018-07-21T02:31:00.402Z,13.33
2018-07-21T02:33:28.569Z,15.47
2018-07-21T02:35:56.739Z,12.13
2018-07-21T02:38:24.926Z,14.20
2018-07-21T02:40:53.070Z,12.37
2018-07-21T02:43:21.222Z,14.40
2018-07-21T02:45:49.411Z,17.57
2018-07-21T02:48:17.598Z,14.37
2018-07-21T02:50:45.734Z,14.10
2018-07-21T02:53:13.894Z,14.80
2018-07-21T02:55:42.044Z,13.30
2018-07-21T02:58:10.198Z,12.27
2018-07-21T03:00:38.338Z,12.67
2018-07-21T03:03:06.538Z,17.97
2018-07-21T03:05:34.662Z,12.77
2018-07-21T03:08:02.810Z,13.90
2018-07-21T03:10:30.950Z,13.77
2018-07-21T03:12:59.073Z,17.80
2018-07-21T03:15:27.209Z,14.53
2018-07-21T03:17:55.334Z,11.47
2018-07-21T03:20:23.578Z,12.60
2018-07-21T03:22:51.691Z,13.00
2018-07-21T03:25:20.877Z,14.50
2018-07-21T03:27:49.006Z,12.20
2018-07-21T03:30:17.139Z,14.20
2018-07-21T03:32:45.259Z,15.93
2018-07-21T03:35:13.445Z,12.87
2018-07-21T03:37:41.590Z,13.27
2018-07-21T03:40:09.724Z,12.80
2018-07-21T03:42:37.846Z,15.23
2018-07-21T03:47:39.674Z,12.73
2018-07-21T03:50:07.845Z,14.00
2018-07-21T03:52:35.994Z,12.73
2018-07-21T03:55:04.030Z,15.17
2018-07-21T03:57:32.150Z,14.90
2018-07-21T04:00:00.334Z,12.67
2018-07-21T04:02:28.475Z,12.57
2018-07-21T04:04:56.615Z,16.27
2018-07-21T04:07:24.746Z,13.60
2018-07-21T04:09:52.956Z,14.07
2018-07-21T04:12:21.141Z,15.43
2018-07-21T04:14:49.322Z,12.53
2018-07-21T04:17:23.475Z,14.97
2018-07-21T04:19:51.629Z,14.10
2018-07-21T04:22:19.882Z,14.00
2018-07-21T04:24:48.013Z,13.37
2018-07-21T04:27:16.151Z,14.50
2018-07-21T04:29:44.286Z,11.87
2018-07-21T04:32:12.620Z,16.10
2018-07-21T04:34:40.754Z,13.27
2018-07-21T04:37:08.894Z,13.63
2018-07-21T04:39:37.054Z,14.57
2018-07-21T04:42:05.274Z,13.23
2018-07-21T04:44:33.414Z,15.40
2018-07-21T04:47:01.634Z,17.47
2018-07-21T04:49:29.769Z,17.60
2018-07-21T04:51:57.891Z,17.50
2018-07-21T04:54:26.040Z,17.03
2018-07-21T04:56:54.202Z,14.13
2018-07-21T04:59:22.438Z,18.33
2018-07-21T05:01:50.409Z,23.13
2018-07-21T05:04:18.561Z,20.73
2018-07-21T05:06:46.718Z,18.87
2018-07-21T05:09:14.842Z,22.77
2018-07-21T05:11:42.818Z,19.50
2018-07-21T05:14:10.949Z,18.73
2018-07-21T05:16:39.773Z,19.50
2018-07-21T05:19:07.933Z,21.60
2018-07-21T05:21:36.448Z,19.10
2018-07-21T05:24:05.055Z,27.73
2018-07-21T05:26:33.310Z,19.53
2018-07-21T05:29:01.218Z,19.43
2018-07-21T05:31:29.453Z,24.23
2018-07-21T05:33:57.595Z,21.00
2018-07-21T05:36:25.722Z,17.80
2018-07-21T05:38:53.843Z,19.87
2018-07-21T05:41:21.986Z,24.23
2018-07-21T05:43:50.141Z,20.00
2018-07-21T05:46:18.270Z,17.93
2018-07-21T05:48:47.398Z,22.20
2018-07-21T05:51:15.562Z,21.50
2018-07-21T05:53:43.685Z,20.33
2018-07-21T05:56:11.825Z,16.30
2018-07-21T05:58:39.941Z,21.33
2018-07-21T06:01:08.114Z,19.20
2018-07-21T06:03:36.251Z,24.60
2018-07-21T06:06:04.421Z,22.03
2018-07-21T06:08:32.548Z,21.60
2018-07-21T06:11:00.685Z,17.93
2018-07-21T06:13:28.835Z,19.20
2018-07-21T06:15:57.050Z,15.70
2018-07-21T06:18:25.174Z,22.20
2018-07-21T06:20:53.323Z,19.13
2018-07-21T06:23:21.458Z,22.00
2018-07-21T06:25:49.622Z,19.03
2018-07-21T06:28:17.762Z,19.00
2018-07-21T06:30:45.922Z,22.47
2018-07-21T06:33:13.827Z,14.70
2018-07-21T06:35:41.963Z,14.23
2018-07-21T06:38:10.082Z,18.40
2018-07-21T06:40:38.255Z,14.93
2018-07-21T06:43:06.586Z,18.90
2018-07-21T06:45:34.679Z,21.47
2018-07-21T06:48:02.791Z,17.93
2018-07-21T06:50:30.930Z,22.67
2018-07-21T06:52:59.066Z,18.47
2018-07-21T06:55:27.225Z,16.90
2018-07-21T06:57:55.410Z,20.20
2018-07-21T07:00:23.583Z,17.60
2018-07-21T07:02:51.788Z,20.90
2018-07-21T07:05:19.910Z,17.93
2018-07-21T07:07:48.050Z,16.00
2018-07-21T07:10:16.195Z,16.53
2018-07-21T07:12:44.284Z,10.53
2018-07-21T07:15:12.398Z,17.73
2018-07-21T07:17:40.526Z,17.10
2018-07-21T07:20:08.711Z,17.07
2018-07-21T07:22:36.852Z,16.03
2018-07-21T07:25:04.977Z,17.97
2018-07-21T07:27:33.190Z,19.60
2018-07-21T07:30:01.238Z,22.80
2018-07-21T07:32:29.374Z,12.23
2018-07-21T07:34:57.507Z,15.00
2018-07-21T07:37:25.656Z,17.63
2018-07-21T07:39:53.783Z,15.97
2018-07-21T07:42:21.939Z,14.30
2018-07-21T07:44:50.053Z,12.93
2018-07-21T07:47:18.185Z,15.80
2018-07-21T07:49:46.377Z,15.40
2018-07-21T07:52:14.792Z,12.93
2018-07-21T07:54:43.633Z,17.83
2018-07-21T07:57:12.159Z,16.20
2018-07-21T07:59:40.273Z,15.63
2018-07-21T08:02:08.417Z,15.77
2018-07-21T08:04:36.678Z,19.50
2018-07-21T08:07:04.823Z,16.20
2018-07-21T08:09:32.944Z,15.27
2018-07-21T08:12:01.204Z,17.43
2018-07-21T08:14:29.862Z,19.10
2018-07-21T08:16:58.241Z,21.37
2018-07-21T08:19:26.395Z,18.13
2018-07-21T08:21:54.526Z,19.20
2018-07-21T08:24:23.182Z,13.90
2018-07-21T08:26:52.164Z,11.07
2018-07-21T08:29:21.375Z,14.20
2018-07-21T08:31:50.150Z,18.33
2018-07-21T08:34:18.571Z,13.57
2018-07-21T08:36:46.927Z,9.53
2018-07-21T08:39:15.582Z,7.70
2018-07-21T08:41:43.782Z,7.43
2018-07-21T08:44:11.930Z,7.93
2018-07-21T08:46:40.078Z,10.90
2018-07-21T08:49:08.218Z,8.57
2018-07-21T08:51:36.363Z,10.90
2018-07-21T08:54:04.505Z,14.50
2018-07-21T08:56:32.751Z,16.63
2018-07-21T08:59:00.980Z,15.10
2018-07-21T09:01:29.157Z,8.67
2018-07-21T09:03:57.305Z,9.80
2018-07-21T09:06:25.448Z,10.10
2018-07-21T09:08:53.607Z,16.67
2018-07-21T09:11:21.737Z,14.70
2018-07-21T09:13:49.881Z,11.40
2018-07-21T09:16:18.235Z,11.40
2018-07-21T09:18:46.454Z,17.40
2018-07-21T09:21:15.280Z,11.60
2018-07-21T09:23:43.434Z,9.00
2018-07-21T09:26:11.601Z,9.47
2018-07-21T09:28:39.774Z,12.07
2018-07-21T09:31:07.925Z,18.13
2018-07-21T09:33:36.078Z,13.37
2018-07-21T09:36:04.227Z,10.43
2018-07-21T09:38:32.366Z,11.33
2018-07-21T09:41:00.518Z,11.10
2018-07-21T09:43:28.658Z,13.17
2018-07-21T09:45:56.879Z,11.80
2018-07-21T09:48:25.027Z,10.97
2018-07-21T09:50:53.194Z,12.50
2018-07-21T09:53:21.347Z,10.77
2018-07-21T09:55:49.569Z,9.37
2018-07-21T09:58:17.623Z,10.67
2018-07-21T10:00:51.249Z,9.77
2018-07-21T10:03:19.382Z,9.90
2018-07-21T10:05:47.489Z,10.03
2018-07-21T10:08:15.609Z,8.77
2018-07-21T10:10:43.735Z,11.53
2018-07-21T10:13:11.878Z,11.40
2018-07-21T10:15:40.067Z,13.17
2018-07-21T10:18:08.242Z,11.77
2018-07-21T10:20:36.367Z,12.33
2018-07-21T10:23:04.534Z,10.80
2018-07-21T10:25:37.998Z,12.50
2018-07-21T10:28:11.527Z,11.57
2018-07-21T10:30:39.662Z,15.03
2018-07-21T10:33:07.877Z,10.43
2018-07-21T10:35:35.929Z,9.23
2018-07-21T10:38:04.102Z,9.60
2018-07-21T10:40:32.207Z,11.47
2018-07-21T10:43:00.293Z,7.50
2018-07-21T10:45:28.612Z,10.73
2018-07-21T10:47:56.879Z,10.40
2018-07-21T10:50:25.047Z,10.40
2018-07-21T10:52:53.167Z,10.57
2018-07-21T10:55:21.421Z,12.50
2018-07-21T10:57:49.810Z,23.30
2018-07-21T11:00:17.943Z,10.70
2018-07-21T11:02:46.061Z,11.33
2018-07-21T11:05:14.174Z,7.80
2018-07-21T11:07:42.389Z,8.03
2018-07-21T11:10:10.510Z,8.90
2018-07-21T11:12:38.638Z,14.33
2018-07-21T11:15:08.317Z,10.03
2018-07-21T11:17:36.650Z,11.30
2018-07-21T11:20:05.347Z,12.33
2018-07-21T11:22:33.485Z,8.67
2018-07-21T11:25:01.605Z,12.80
2018-07-21T11:27:29.713Z,9.30
2018-07-21T11:29:57.878Z,10.53
2018-07-21T11:32:26.042Z,11.50
2018-07-21T11:34:54.194Z,10.70
2018-07-21T11:37:22.477Z,9.60
2018-07-21T11:39:51.294Z,8.40
2018-07-21T11:42:19.465Z,10.10
2018-07-21T11:44:47.574Z,8.43
2018-07-21T11:47:15.790Z,9.17
2018-07-21T11:49:43.902Z,8.23
2018-07-21T11:52:12.013Z,8.83
2018-07-21T11:54:40.134Z,9.67
2018-07-21T11:57:08.241Z,11.47
2018-07-21T11:59:36.374Z,14.20
2018-07-21T12:02:04.540Z,12.63
2018-07-21T12:04:32.698Z,8.73
2018-07-21T12:07:00.837Z,8.17
2018-07-21T12:09:28.994Z,9.00
2018-07-21T12:11:57.145Z,9.40
2018-07-21T12:14:25.292Z,9.07
2018-07-21T12:16:53.454Z,11.03
2018-07-21T12:19:21.610Z,9.17
2018-07-21T12:21:49.791Z,9.37
2018-07-21T12:24:18.026Z,10.43
2018-07-21T12:26:46.208Z,8.87
2018-07-21T12:29:14.362Z,9.30
2018-07-21T12:31:42.609Z,10.83
2018-07-21T12:34:10.776Z,12.17
2018-07-21T12:36:38.918Z,9.73
2018-07-21T12:39:08.276Z,9.10
2018-07-21T12:41:36.474Z,8.97
2018-07-21T12:44:04.698Z,6.93
2018-07-21T12:46:32.841Z,9.53
2018-07-21T12:49:00.994Z,9.00
2018-07-21T12:51:29.210Z,9.73
2018-07-21T12:53:57.397Z,10.90
2018-07-21T12:56:25.505Z,12.87
2018-07-21T12:58:53.646Z,9.37
2018-07-21T13:01:21.798Z,9.07
2018-07-21T13:03:49.946Z,8.77
2018-07-21T13:06:18.174Z,10.40
2018-07-21T13:08:46.311Z,8.00
2018-07-21T13:11:14.456Z,8.50
2018-07-21T13:13:42.594Z,12.73
2018-07-21T13:16:10.746Z,8.87
2018-07-21T13:18:38.893Z,13.43
2018-07-21T13:21:07.044Z,9.27
2018-07-21T13:23:35.186Z,8.50
2018-07-21T13:26:03.346Z,9.37
2018-07-21T13:28:31.915Z,8.33
2018-07-21T13:31:00.106Z,14.97
2018-07-21T13:33:28.252Z,11.70
2018-07-21T13:35:56.405Z,9.83
2018-07-21T13:38:24.574Z,8.57
2018-07-21T13:40:52.731Z,9.53
2018-07-21T13:43:20.861Z,8.67
2018-07-21T13:45:49.020Z,10.20
2018-07-21T13:48:17.162Z,10.37
2018-07-21T13:50:45.342Z,10.03
2018-07-21T13:53:13.507Z,12.83
2018-07-21T13:55:41.662Z,14.83
2018-07-21T13:58:09.806Z,10.03
2018-07-21T14:00:37.964Z,9.20
2018-07-21T14:03:06.164Z,13.03
2018-07-21T14:05:34.315Z,8.90
2018-07-21T14:08:02.466Z,9.80
2018-07-21T14:10:30.614Z,8.60
2018-07-21T14:12:58.753Z,9.40
2018-07-21T14:15:26.994Z,9.57
2018-07-21T14:17:55.184Z,10.03
2018-07-21T14:20:23.418Z,8.50
2018-07-21T14:22:51.647Z,9.00
2018-07-21T14:25:19.844Z,9.73
2018-07-21T14:27:47.997Z,10.67
2018-07-21T14:30:16.146Z,7.97
2018-07-21T14:32:44.292Z,8.10
2018-07-21T14:35:12.453Z,10.40
2018-07-21T14:37:40.610Z,6.20
2018-07-21T14:40:08.767Z,7.40
2018-07-21T14:42:36.914Z,10.30
2018-07-21T14:45:05.256Z,8.87
2018-07-21T14:47:33.467Z,8.70
2018-07-21T14:50:01.597Z,7.57
2018-07-21T14:52:29.766Z,8.20
2018-07-21T14:54:57.997Z,9.37
2018-07-21T14:57:26.073Z,10.53
2018-07-21T14:59:54.237Z,10.00
2018-07-21T15:02:22.394Z,9.83
2018-07-21T15:04:50.553Z,8.90
2018-07-21T15:07:18.730Z,6.73
2018-07-21T15:09:46.870Z,7.63
2018-07-21T15:12:15.037Z,8.33
2018-07-21T15:14:43.161Z,9.67
2018-07-21T15:17:11.357Z,8.60
2018-07-21T15:19:39.510Z,8.70
2018-07-21T15:22:07.715Z,8.67
2018-07-21T15:24:35.897Z,9.37
2018-07-21T15:27:04.054Z,9.30
2018-07-21T15:29:32.255Z,6.97
2018-07-21T15:32:00.367Z,7.30
2018-07-21T15:34:28.506Z,8.97
2018-07-21T15:36:56.651Z,9.07
2018-07-21T15:39:24.799Z,10.80
2018-07-21T15:41:52.962Z,10.13
2018-07-21T15:44:21.119Z,8.80
2018-07-21T15:46:49.305Z,9.67
2018-07-21T15:49:17.437Z,12.80
2018-07-21T15:51:45.606Z,15.13
2018-07-21T15:54:13.754Z,11.87
2018-07-21T15:56:41.906Z,12.60
2018-07-21T15:59:10.050Z,12.70
2018-07-21T16:01:38.186Z,18.20
2018-07-21T16:04:06.310Z,14.13
2018-07-21T16:06:34.515Z,16.17
2018-07-21T16:09:03.811Z,19.43
2018-07-21T16:11:31.709Z,16.40
2018-07-21T16:13:59.871Z,13.23
2018-07-21T16:16:28.091Z,14.20
2018-07-21T16:18:56.219Z,13.33
2018-07-21T16:21:24.586Z,14.43
2018-07-21T16:23:52.493Z,13.67
2018-07-21T16:26:20.641Z,13.60
2018-07-21T16:28:48.770Z,13.30
2018-07-21T16:31:17.058Z,14.57
2018-07-21T16:33:45.196Z,15.13
2018-07-21T16:36:13.314Z,13.40
2018-07-21T16:38:41.447Z,13.30
2018-07-21T16:41:09.562Z,15.60
2018-07-21T16:43:37.694Z,15.70
2018-07-21T16:46:05.806Z,16.30
2018-07-21T16:48:33.930Z,15.53
2018-07-21T16:51:02.063Z,15.63
2018-07-21T16:53:30.201Z,13.10
2018-07-21T16:55:58.355Z,14.00
2018-07-21T16:58:26.485Z,12.97
2018-07-21T17:00:54.946Z,13.37
2018-07-21T17:03:23.138Z,13.50
2018-07-21T17:05:51.279Z,12.80
2018-07-21T17:08:19.711Z,12.70
2018-07-21T17:10:47.586Z,11.80
2018-07-21T17:13:15.809Z,12.00
2018-07-21T17:15:43.944Z,10.87
2018-07-21T17:18:12.111Z,12.17
2018-07-21T17:20:40.270Z,9.73
2018-07-21T17:23:08.439Z,10.40
2018-07-21T17:25:36.990Z,9.47
2018-07-21T17:28:05.469Z,9.33
2018-07-21T17:30:33.623Z,8.60
2018-07-21T17:33:01.786Z,8.77
2018-07-21T17:35:29.952Z,13.83
2018-07-21T17:37:58.089Z,9.03
2018-07-21T17:40:26.236Z,7.80
2018-07-21T17:42:54.382Z,8.27
2018-07-21T17:45:22.506Z,7.33
2018-07-21T17:47:50.658Z,9.77
2018-07-21T17:50:18.825Z,10.03
2018-07-21T17:52:46.990Z,10.77
2018-07-21T17:55:15.130Z,8.77
2018-07-21T17:57:43.410Z,7.70
2018-07-21T18:00:11.559Z,7.73
2018-07-21T18:02:39.702Z,12.60
2018-07-21T18:05:07.834Z,8.70
2018-07-21T18:07:36.144Z,9.83
2018-07-21T18:10:04.234Z,21.07
2018-07-21T18:12:32.390Z,21.37
2018-07-21T18:15:00.591Z,12.43
2018-07-21T18:17:28.746Z,9.77
2018-07-21T18:19:56.973Z,7.90
2018-07-21T18:22:25.094Z,9.57
2018-07-21T18:24:53.300Z,7.50
2018-07-21T18:27:21.450Z,7.20
2018-07-21T18:29:49.656Z,7.37
2018-07-21T18:32:17.911Z,7.53
2018-07-21T18:34:46.182Z,7.30
2018-07-21T18:37:14.327Z,8.27
2018-07-21T18:39:42.520Z,7.60
2018-07-21T18:42:10.651Z,8.03
2018-07-21T18:44:38.774Z,7.43
2018-07-21T18:47:06.901Z,7.80
2018-07-21T18:49:35.046Z,7.10
2018-07-21T18:52:03.238Z,10.37
2018-07-21T18:54:31.318Z,7.83
2018-07-21T18:56:59.455Z,8.20
2018-07-21T18:59:27.578Z,8.60
2018-07-21T19:01:55.728Z,8.43
2018-07-21T19:04:23.914Z,8.40
2018-07-21T19:06:52.282Z,10.40
2018-07-21T19:09:20.443Z,8.70
2018-07-21T19:11:53.806Z,9.83
2018-07-21T19:14:22.006Z,7.80
2018-07-21T19:16:50.206Z,9.90
2018-07-21T19:19:18.390Z,7.83
2018-07-21T19:21:46.527Z,9.33
2018-07-21T19:24:14.712Z,7.87
2018-07-21T19:26:48.222Z,8.80
2018-07-21T19:29:16.391Z,8.53
2018-07-21T19:31:49.948Z,8.60
2018-07-21T19:34:18.086Z,10.17
2018-07-21T19:36:46.246Z,9.40
2018-07-21T19:39:14.382Z,9.83
2018-07-21T19:41:47.818Z,9.73
2018-07-21T19:44:15.953Z,8.77
2018-07-21T19:46:44.159Z,9.10
2018-07-21T19:49:12.322Z,10.53
2018-07-21T19:51:40.467Z,9.30
2018-07-21T19:54:09.479Z,12.20
2018-07-21T19:56:37.695Z,10.57
2018-07-21T19:59:05.934Z,8.03
2018-07-21T20:01:33.858Z,10.50
2018-07-21T20:04:02.007Z,14.63
2018-07-21T20:06:30.159Z,12.63
2018-07-21T20:08:58.302Z,11.20
2018-07-21T20:11:26.441Z,10.70
2018-07-21T20:13:54.732Z,10.83
2018-07-21T20:16:22.823Z,11.10
2018-07-21T20:18:50.951Z,12.47
2018-07-21T20:21:19.180Z,10.13
2018-07-21T20:23:47.230Z,10.63
2018-07-21T20:26:15.378Z,10.87
2018-07-21T20:28:43.305Z,10.13
2018-07-21T20:31:11.706Z,10.70
2018-07-21T20:33:39.927Z,10.57
2018-07-21T20:36:08.074Z,11.27
2018-07-21T20:38:36.210Z,11.53
2018-07-21T20:41:04.363Z,10.60
2018-07-21T20:43:32.544Z,11.00
2018-07-21T20:46:00.684Z,12.30
2018-07-21T20:48:28.830Z,11.87
2018-07-21T20:50:56.963Z,12.57
2018-07-21T20:53:25.105Z,13.13
2018-07-21T20:55:53.233Z,15.90
2018-07-21T20:58:21.358Z,12.27
2018-07-21T21:00:49.554Z,13.90
2018-07-21T21:03:17.682Z,16.60
2018-07-21T21:05:45.830Z,16.93
2018-07-21T21:08:13.966Z,12.23
2018-07-21T21:10:42.105Z,13.70
2018-07-21T21:13:10.230Z,11.47
2018-07-21T21:15:38.447Z,13.57
2018-07-21T21:18:06.567Z,13.27
2018-07-21T21:20:34.703Z,13.50
2018-07-21T21:23:02.814Z,12.77
2018-07-21T21:25:30.941Z,13.63
2018-07-21T21:27:59.092Z,13.70
2018-07-21T21:30:27.255Z,12.90
2018-07-21T21:32:55.386Z,14.77
2018-07-21T21:35:23.513Z,14.33
2018-07-21T21:37:51.650Z,14.63
2018-07-21T21:40:19.818Z,15.00
2018-07-21T21:42:47.966Z,12.93
2018-07-21T21:45:16.106Z,14.00
2018-07-21T21:47:44.254Z,12.50
2018-07-21T21:50:12.476Z,13.23
2018-07-21T21:52:40.606Z,13.73
2018-07-21T21:55:08.833Z,13.37
2018-07-21T21:57:36.975Z,13.90
2018-07-21T22:00:08.547Z,14.40
2018-07-21T22:02:36.699Z,15.80
2018-07-21T22:05:04.864Z,14.57
2018-07-21T22:07:33.010Z,14.97
2018-07-21T22:10:01.143Z,17.27
2018-07-21T22:12:29.278Z,15.60
2018-07-21T22:14:57.402Z,15.43
2018-07-21T22:17:25.534Z,14.30
2018-07-21T22:19:53.667Z,15.30
2018-07-21T22:22:21.807Z,15.97
2018-07-21T22:24:49.921Z,17.70
2018-07-21T22:27:18.063Z,15.50
2018-07-21T22:29:46.193Z,16.13
2018-07-21T22:32:14.331Z,16.43
2018-07-21T22:34:42.462Z,16.20
2018-07-21T22:37:10.598Z,17.13
2018-07-21T22:39:38.706Z,17.50
2018-07-21T22:42:06.839Z,17.77
2018-07-21T22:44:34.965Z,19.23
2018-07-21T22:47:03.099Z,16.27
2018-07-21T22:49:31.226Z,17.93
2018-07-21T22:51:59.362Z,18.60
2018-07-21T22:54:27.508Z,20.13
2018-07-21T22:56:55.682Z,16.43
2018-07-21T22:59:23.798Z,17.67
2018-07-21T23:01:51.959Z,18.60
2018-07-21T23:04:20.118Z,19.63
2018-07-21T23:06:48.315Z,19.80
2018-07-21T23:09:16.454Z,18.67
2018-07-21T23:11:44.626Z,19.70
2018-07-21T23:14:12.763Z,17.20
2018-07-21T23:16:40.930Z,18.27
2018-07-21T23:19:09.121Z,17.43
2018-07-21T23:21:37.255Z,18.10
2018-07-21T23:24:05.577Z,19.73
2018-07-21T23:26:34.566Z,19.03
2018-07-21T23:29:02.714Z,22.57
2018-07-21T23:31:30.914Z,19.70
2018-07-21T23:33:59.053Z,19.77
2018-07-21T23:36:27.198Z,20.10
2018-07-21T23:38:55.523Z,18.80
2018-07-21T23:41:23.664Z,20.03
2018-07-21T23:43:51.805Z,18.73
2018-07-21T23:46:20.026Z,19.20
2018-07-21T23:48:48.183Z,21.60
2018-07-21T23:51:16.332Z,20.20
2018-07-21T23:53:44.505Z,21.47
2018-07-21T23:56:12.735Z,22.93
2018-07-21T23:58:40.882Z,20.67
